Time;durP1;ratioP1;P1;durP2;ratioP2;P2;SDS_P1;SDS_P2;PMS_P1;PMS_P2;Temp;Humidity;BMP_temperature;BMP_pressure;BME280_temperature;BME280_humidity;BME280_pressure;Samples;Min_cycle;Max_cycle;Signal;HPM_P1;HPM_P2
2023/05/17 00:00:08;;;;;;;4.10;2.43;;;11.10;64.80;;;;;;5034842;28;20534;-88
2023/05/17 00:02:34;;;;;;;5.33;2.70;;;11.10;65.10;;;;;;5037097;28;20191;-87
2023/05/17 00:05:00;;;;;;;3.93;2.73;;;11.10;65.30;;;;;;5035900;28;20192;-88
2023/05/17 00:07:26;;;;;;;9.03;2.87;;;11.10;65.50;;;;;;5035051;28;20208;-86
2023/05/17 00:09:51;;;;;;;5.50;2.70;;;11.00;65.70;;;;;;5035616;28;20731;-87
2023/05/17 00:12:17;;;;;;;4.63;2.93;;;11.00;66.20;;;;;;5034295;28;20581;-87
2023/05/17 00:14:43;;;;;;;3.80;2.67;;;11.00;66.50;;;;;;5037806;28;20178;-88
2023/05/17 00:17:08;;;;;;;7.03;2.90;;;11.00;66.40;;;;;;5037397;28;20208;-87
2023/05/17 00:19:34;;;;;;;3.70;2.60;;;11.00;66.10;;;;;;5031404;28;20201;-87
2023/05/17 00:22:00;;;;;;;3.13;2.80;;;11.00;66.40;;;;;;5034393;28;20237;-87
2023/05/17 00:24:26;;;;;;;5.30;3.13;;;10.90;66.70;;;;;;5033948;28;20173;-88
2023/05/17 00:26:51;;;;;;;4.90;3.00;;;11.00;66.50;;;;;;5033428;28;20241;-87
2023/05/17 00:29:17;;;;;;;5.03;2.80;;;11.00;66.50;;;;;;5032582;28;20239;-88
2023/05/17 00:31:43;;;;;;;8.17;3.20;;;11.00;66.70;;;;;;5030546;28;20228;-88
2023/05/17 00:34:09;;;;;;;3.50;2.93;;;11.00;66.70;;;;;;5030227;28;20170;-87
2023/05/17 00:36:34;;;;;;;4.93;3.13;;;11.00;66.80;;;;;;5030964;28;20181;-87
2023/05/17 00:39:00;;;;;;;3.53;2.83;;;11.00;66.70;;;;;;5034160;28;20204;-88
2023/05/17 00:41:26;;;;;;;3.73;2.83;;;11.00;67.00;;;;;;5036150;28;20194;-87
2023/05/17 00:43:51;;;;;;;3.70;2.80;;;11.00;66.90;;;;;;5031386;28;20188;-88
2023/05/17 00:46:17;;;;;;;4.67;3.10;;;11.00;66.90;;;;;;5010016;28;20263;-87
2023/05/17 00:48:43;;;;;;;5.50;3.17;;;10.90;67.80;;;;;;5032247;28;20874;-87
2023/05/17 00:51:10;;;;;;;5.60;2.93;;;10.80;68.20;;;;;;5034240;28;20204;-88
2023/05/17 00:53:36;;;;;;;3.73;3.10;;;10.70;69.00;;;;;;5034805;28;20213;-87
2023/05/17 00:56:03;;;;;;;4.77;3.20;;;10.70;68.30;;;;;;5034521;28;20184;-87
2023/05/17 00:58:29;;;;;;;4.53;3.17;;;10.80;69.10;;;;;;5035049;28;20222;-87
2023/05/17 01:00:55;;;;;;;4.50;3.00;;;10.80;68.20;;;;;;5035066;28;20170;-88
2023/05/17 01:03:23;;;;;;;5.97;2.90;;;10.80;68.20;;;;;;5017732;28;21020;-87
2023/05/17 01:05:49;;;;;;;5.17;3.00;;;10.80;68.10;;;;;;5035822;28;20161;-86
2023/05/17 01:08:15;;;;;;;5.77;3.13;;;10.80;68.30;;;;;;5036437;28;20573;-88
2023/05/17 01:11:13;;;;;;;5.50;3.27;;;10.90;68.00;;;;;;5035678;28;20205;-87
2023/05/17 01:13:47;;;;;;;5.20;3.20;;;10.80;68.60;;;;;;5041108;28;20185;-87
2023/05/17 01:16:32;;;;;;;6.07;3.67;;;10.80;68.40;;;;;;5039138;28;20187;-88
2023/05/17 01:19:08;;;;;;;3.53;3.10;;;10.70;68.80;;;;;;5046533;28;20197;-88
2023/05/17 01:22:09;;;;;;;4.97;3.33;;;10.80;68.60;;;;;;5003022;28;20167;-86
2023/05/17 01:25:03;;;;;;;4.43;3.30;;;10.80;68.40;;;;;;5014532;28;20173;-86
2023/05/17 01:27:30;;;;;;;5.60;3.30;;;10.90;68.50;;;;;;5011354;28;20253;-87
2023/05/17 01:29:57;;;;;;;3.80;3.00;;;10.90;68.40;;;;;;5010520;28;20258;-87
2023/05/17 01:32:24;;;;;;;4.53;3.10;;;10.80;68.80;;;;;;5010152;28;20216;-88
2023/05/17 01:34:50;;;;;;;4.37;3.33;;;10.80;69.20;;;;;;5011911;28;20202;-88
2023/05/17 01:37:16;;;;;;;6.20;3.40;;;10.70;69.60;;;;;;5012369;28;20791;-87
2023/05/17 01:39:41;;;;;;;4.97;3.03;;;10.70;69.50;;;;;;5014495;28;20216;-86
2023/05/17 01:42:19;;;;;;;4.40;3.20;;;10.80;69.70;;;;;;5015255;28;20212;-87
2023/05/17 01:44:53;;;;;;;3.93;3.33;;;10.80;69.60;;;;;;5015447;28;20357;-88
2023/05/17 01:47:29;;;;;;;4.17;3.13;;;10.80;69.50;;;;;;5015767;28;20157;-87
2023/05/17 01:49:58;;;;;;;3.53;3.03;;;10.80;69.70;;;;;;5014755;28;20702;-87
2023/05/17 01:52:34;;;;;;;4.07;3.43;;;10.80;69.50;;;;;;5013653;28;20226;-86
2023/05/17 01:55:23;;;;;;;4.83;3.13;;;10.70;69.60;;;;;;5019070;28;20197;-89
2023/05/17 01:57:52;;;;;;;5.10;3.40;;;10.80;69.70;;;;;;5023853;28;20186;-87
2023/05/17 02:00:20;;;;;;;4.63;3.03;;;10.80;69.60;;;;;;5034914;28;20539;-87
2023/05/17 02:02:46;;;;;;;5.00;3.40;;;10.80;69.70;;;;;;5034134;28;20171;-87
2023/05/17 02:05:12;;;;;;;4.83;3.67;;;10.80;69.60;;;;;;5034812;28;20241;-86
2023/05/17 02:07:38;;;;;;;3.87;3.43;;;10.70;70.20;;;;;;5037716;28;20222;-87
2023/05/17 02:10:04;;;;;;;7.23;3.47;;;10.70;70.40;;;;;;5040097;28;20169;-86
2023/05/17 02:12:30;;;;;;;4.77;3.37;;;10.70;70.60;;;;;;5041932;28;20223;-87
2023/05/17 02:14:56;;;;;;;6.83;3.47;;;10.70;70.40;;;;;;5040120;28;20532;-86
2023/05/17 02:17:22;;;;;;;4.00;3.50;;;10.80;70.70;;;;;;5038130;28;20237;-88
2023/05/17 02:19:47;;;;;;;5.50;3.80;;;10.80;70.20;;;;;;5036075;28;20199;-87
2023/05/17 02:22:13;;;;;;;3.83;3.23;;;10.80;71.10;;;;;;5033239;28;20185;-87
2023/05/17 02:24:39;;;;;;;3.80;3.40;;;10.70;71.40;;;;;;5033894;28;20932;-88
2023/05/17 02:27:04;;;;;;;4.13;3.40;;;10.70;71.80;;;;;;5033337;28;20179;-86
2023/05/17 02:29:30;;;;;;;5.50;3.73;;;10.70;71.50;;;;;;5016085;28;20227;-88
2023/05/17 02:31:56;;;;;;;5.93;3.63;;;10.80;71.80;;;;;;5015981;28;20204;-88
2023/05/17 02:34:22;;;;;;;4.03;3.50;;;10.80;70.80;;;;;;5034743;28;20598;-88
2023/05/17 02:36:47;;;;;;;5.97;3.43;;;10.80;70.90;;;;;;5035785;28;20245;-87
2023/05/17 02:39:13;;;;;;;3.20;2.90;;;10.80;71.30;;;;;;5036665;28;20680;-86
2023/05/17 02:41:38;;;;;;;4.83;3.10;;;10.70;72.10;;;;;;5037087;28;20188;-87
2023/05/17 02:44:04;;;;;;;4.73;3.63;;;10.70;71.70;;;;;;5037077;28;20186;-88
2023/05/17 02:46:30;;;;;;;5.00;3.63;;;10.70;71.50;;;;;;5039153;28;20897;-87
2023/05/17 02:48:56;;;;;;;4.90;3.80;;;10.80;71.70;;;;;;5039329;28;20220;-87
2023/05/17 02:51:21;;;;;;;5.97;4.00;;;10.80;71.20;;;;;;5038661;28;20218;-87
2023/05/17 02:53:47;;;;;;;7.37;3.70;;;10.60;71.70;;;;;;5039874;28;20580;-87
2023/05/17 02:56:13;;;;;;;4.80;4.00;;;10.60;71.70;;;;;;5039790;28;20179;-87
2023/05/17 02:58:38;;;;;;;4.77;3.50;;;10.50;72.10;;;;;;5039127;28;20223;-87
2023/05/17 03:01:04;;;;;;;5.00;3.80;;;10.50;72.30;;;;;;5039375;28;20189;-87
2023/05/17 03:03:30;;;;;;;5.10;3.40;;;10.50;72.60;;;;;;5040170;28;20292;-87
2023/05/17 03:06:03;;;;;;;4.13;3.00;;;10.40;73.00;;;;;;5049867;28;20708;-89
2023/05/17 03:08:30;;;;;;;3.30;3.00;;;10.40;73.30;;;;;;5043933;28;20213;-89
2023/05/17 03:10:56;;;;;;;4.60;3.37;;;10.40;73.50;;;;;;5049826;28;20202;-88
2023/05/17 03:13:21;;;;;;;4.57;3.50;;;10.30;73.90;;;;;;5041858;28;20663;-88
2023/05/17 03:15:47;;;;;;;6.77;3.70;;;10.30;74.00;;;;;;5039190;28;20181;-87
2023/05/17 03:18:12;;;;;;;6.97;3.87;;;10.20;74.40;;;;;;5038218;28;20211;-87
2023/05/17 03:20:38;;;;;;;6.37;3.50;;;10.10;74.60;;;;;;5017886;28;20190;-87
2023/05/17 03:23:04;;;;;;;9.87;3.77;;;10.10;74.70;;;;;;5035908;28;20187;-87
2023/05/17 03:25:30;;;;;;;5.40;3.50;;;10.10;74.80;;;;;;5035001;28;20185;-88
2023/05/17 03:27:55;;;;;;;4.83;3.87;;;10.40;73.60;;;;;;5034861;28;20199;-88
2023/05/17 03:30:21;;;;;;;5.53;3.60;;;10.40;73.50;;;;;;5036188;28;20620;-86
2023/05/17 03:32:47;;;;;;;5.50;3.90;;;10.40;73.70;;;;;;5036437;28;20167;-87
2023/05/17 03:35:12;;;;;;;6.60;4.07;;;10.40;73.40;;;;;;5036891;28;20172;-87
2023/05/17 03:37:38;;;;;;;7.23;3.90;;;10.50;74.20;;;;;;5037030;28;20584;-87
2023/05/17 03:40:04;;;;;;;6.63;3.90;;;10.50;74.60;;;;;;5038109;28;20203;-88
2023/05/17 03:42:30;;;;;;;6.03;5.10;;;10.50;75.10;;;;;;5036034;28;20640;-89
2023/05/17 03:44:56;;;;;;;4.87;3.47;;;10.50;75.60;;;;;;5023376;28;20195;-89
2023/05/17 03:47:22;;;;;;;10.57;4.10;;;10.50;75.30;;;;;;5018211;28;20192;-89
2023/05/17 03:49:48;;;;;;;5.17;3.80;;;10.50;75.20;;;;;;5019885;28;20247;-89
2023/05/17 03:52:14;;;;;;;4.37;3.47;;;10.50;75.10;;;;;;5018814;28;20215;-87
2023/05/17 03:54:40;;;;;;;4.73;3.47;;;10.60;75.80;;;;;;5017808;28;20248;-87
2023/05/17 03:57:05;;;;;;;5.43;3.43;;;10.60;73.80;;;;;;5018688;28;20184;-87
2023/05/17 03:59:31;;;;;;;3.80;3.23;;;10.50;74.20;;;;;;5017453;28;20216;-87
2023/05/17 04:01:57;;;;;;;3.90;3.50;;;10.40;74.60;;;;;;5034123;28;20204;-88
2023/05/17 04:04:22;;;;;;;4.57;3.30;;;10.30;75.40;;;;;;5031334;28;20218;-87
2023/05/17 04:06:49;;;;;;;6.10;4.57;;;10.30;75.70;;;;;;5037338;28;20640;-87
2023/05/17 04:09:14;;;;;;;4.10;3.70;;;10.40;75.00;;;;;;5037407;28;20778;-88
2023/05/17 04:11:41;;;;;;;7.47;3.80;;;10.40;74.50;;;;;;5032961;28;20222;-86
2023/05/17 04:14:07;;;;;;;6.93;3.43;;;10.50;76.70;;;;;;5034289;28;20330;-87
2023/05/17 04:16:33;;;;;;;3.93;3.43;;;10.40;76.40;;;;;;5034185;28;20317;-86
2023/05/17 04:19:01;;;;;;;6.40;3.57;;;10.50;76.60;;;;;;5031955;28;20274;-88
2023/05/17 04:21:27;;;;;;;3.60;2.93;;;10.40;76.90;;;;;;5016604;28;20834;-87
2023/05/17 04:23:53;;;;;;;3.20;2.97;;;10.50;77.50;;;;;;5034476;28;20198;-88
2023/05/17 04:26:19;;;;;;;5.40;3.27;;;10.40;76.90;;;;;;5015011;28;20183;-87
2023/05/17 04:28:45;;;;;;;4.77;3.50;;;10.50;78.20;;;;;;5015068;28;20491;-88
2023/05/17 04:31:14;;;;;;;4.40;3.70;;;10.50;79.20;;;;;;5034580;28;20196;-86
2023/05/17 04:33:40;;;;;;;4.47;3.40;;;10.50;79.50;;;;;;5018790;28;20259;-88
2023/05/17 04:36:06;;;;;;;4.37;3.57;;;10.50;79.20;;;;;;5035581;28;20264;-87
2023/05/17 04:38:32;;;;;;;5.90;4.17;;;10.50;80.20;;;;;;5034972;28;20203;-87
2023/05/17 04:41:05;;;;;;;5.50;4.33;;;10.40;79.60;;;;;;5034157;28;20263;-86
2023/05/17 04:43:32;;;;;;;7.03;6.27;;;10.60;78.20;;;;;;5034868;28;20180;-88
2023/05/17 04:45:59;;;;;;;8.83;6.07;;;10.70;77.10;;;;;;5023236;28;20672;-87
2023/05/17 04:48:26;;;;;;;11.60;8.03;;;10.70;76.20;;;;;;5033869;28;20193;-89
2023/05/17 04:50:54;;;;;;;10.90;8.20;;;10.80;75.90;;;;;;5034409;28;20333;-88
2023/05/17 04:53:20;;;;;;;9.77;6.53;;;10.80;76.10;;;;;;5035203;28;20244;-87
2023/05/17 04:55:47;;;;;;;6.13;5.40;;;10.80;75.80;;;;;;5034621;28;20675;-87
2023/05/17 04:58:13;;;;;;;6.47;4.67;;;10.80;76.00;;;;;;5017023;28;20203;-87
2023/05/17 05:00:39;;;;;;;5.53;4.57;;;10.90;75.70;;;;;;5029584;28;20199;-87
2023/05/17 05:03:06;;;;;;;6.00;4.30;;;10.90;75.80;;;;;;5034474;28;20592;-86
2023/05/17 05:05:32;;;;;;;4.90;4.40;;;10.90;76.10;;;;;;5041688;28;20222;-87
2023/05/17 05:07:58;;;;;;;6.33;4.50;;;11.00;75.60;;;;;;5032785;28;20231;-88
2023/05/17 05:10:24;;;;;;;9.70;4.20;;;11.10;75.90;;;;;;5013980;28;20195;-88
2023/05/17 05:12:50;;;;;;;5.83;4.80;;;11.00;76.00;;;;;;5014660;28;20546;-89
2023/05/17 05:15:16;;;;;;;8.07;4.63;;;11.10;76.00;;;;;;5002950;28;20384;-87
2023/05/17 05:17:41;;;;;;;5.37;4.27;;;11.10;75.10;;;;;;4986711;28;20192;-87
2023/05/17 05:20:09;;;;;;;5.57;4.60;;;11.10;75.10;;;;;;4986444;28;20285;-87
2023/05/17 05:22:34;;;;;;;5.13;4.63;;;11.10;74.90;;;;;;5009159;28;21380;-89
2023/05/17 05:25:00;;;;;;;6.37;4.40;;;11.10;75.60;;;;;;5016059;28;20191;-88
2023/05/17 05:27:26;;;;;;;7.50;4.37;;;11.20;75.90;;;;;;5012165;28;20275;-88
2023/05/17 05:29:51;;;;;;;5.63;4.50;;;11.20;75.30;;;;;;5012585;28;20338;-88
2023/05/17 05:32:17;;;;;;;7.63;4.80;;;11.20;75.50;;;;;;5012405;28;20233;-86
2023/05/17 05:34:43;;;;;;;5.30;4.33;;;11.20;75.30;;;;;;5014327;28;20180;-87
2023/05/17 05:37:09;;;;;;;11.87;5.03;;;11.20;75.20;;;;;;5009621;28;20195;-87
2023/05/17 05:39:35;;;;;;;7.07;5.00;;;11.10;75.70;;;;;;5014611;28;20213;-87
2023/05/17 05:42:00;;;;;;;5.63;4.80;;;11.00;75.20;;;;;;5013424;28;20215;-87
2023/05/17 05:44:30;;;;;;;6.40;4.30;;;11.00;76.00;;;;;;5000030;28;20244;-88
2023/05/17 05:46:56;;;;;;;6.83;5.17;;;11.00;76.50;;;;;;5025092;28;21034;-87
2023/05/17 05:49:21;;;;;;;5.07;4.57;;;11.10;76.30;;;;;;5027158;28;20237;-89
2023/05/17 05:51:47;;;;;;;8.73;4.87;;;11.10;75.50;;;;;;5023065;28;20279;-87
2023/05/17 05:54:13;;;;;;;5.37;4.53;;;11.10;75.50;;;;;;5002596;28;20684;-87
2023/05/17 05:56:41;;;;;;;7.57;4.93;;;11.00;75.70;;;;;;5000009;28;20196;-88
2023/05/17 05:59:10;;;;;;;9.03;5.00;;;11.10;76.60;;;;;;5016595;28;20216;-88
2023/05/17 06:01:40;;;;;;;6.77;4.77;;;11.20;76.00;;;;;;5004022;28;20757;-88
2023/05/17 06:04:06;;;;;;;7.23;5.27;;;11.20;75.00;;;;;;5018938;28;20225;-88
2023/05/17 06:06:31;;;;;;;7.33;5.10;;;11.40;75.70;;;;;;5015323;28;20199;-87
2023/05/17 06:09:47;;;;;;;6.00;5.13;;;11.40;75.10;;;;;;5019388;23;20244;-88
2023/05/17 06:12:13;;;;;;;9.57;5.17;;;11.40;75.00;;;;;;5009494;28;20217;-88
2023/05/17 06:14:49;;;;;;;10.10;5.30;;;11.50;74.10;;;;;;5007521;28;20190;-88
2023/05/17 06:17:15;;;;;;;6.23;5.30;;;11.60;74.20;;;;;;4990458;28;20705;-88
2023/05/17 06:19:41;;;;;;;11.90;5.53;;;11.70;73.80;;;;;;4978714;28;20285;-87
2023/05/17 06:22:07;;;;;;;8.33;5.30;;;11.80;72.60;;;;;;4990132;28;21011;-87
2023/05/17 06:24:50;;;;;;;7.20;5.43;;;11.90;72.80;;;;;;4997647;28;20197;-88
2023/05/17 06:27:22;;;;;;;6.03;5.37;;;12.00;70.90;;;;;;4998232;28;20210;-87
2023/05/17 06:29:48;;;;;;;7.37;5.70;;;12.00;68.90;;;;;;4999760;28;20222;-88
2023/05/17 06:32:13;;;;;;;9.13;5.10;;;12.00;69.40;;;;;;4991613;28;20309;-88
2023/05/17 06:34:47;;;;;;;6.73;4.77;;;12.20;67.70;;;;;;5000421;28;20199;-88
2023/05/17 06:37:16;;;;;;;6.23;4.70;;;12.20;67.70;;;;;;5003491;28;20179;-87
2023/05/17 06:40:22;;;;;;;9.70;5.57;;;12.10;68.10;;;;;;5013483;22;20303;-88
2023/05/17 06:43:01;;;;;;;5.80;5.00;;;12.10;67.80;;;;;;4938895;28;20200;-89
2023/05/17 06:45:59;;;;;;;8.37;5.53;;;12.10;68.80;;;;;;4951225;28;20215;-88
2023/05/17 06:48:38;;;;;;;;;;;;;;;;;;;;;
2023/05/17 06:51:05;;;;;;;10.20;5.37;;;12.10;68.50;;;;;;4969090;28;20695;-86
2023/05/17 06:53:30;;;;;;;6.53;4.70;;;12.20;68.00;;;;;;4984847;28;20276;-90
2023/05/17 06:56:14;;;;;;;6.60;4.77;;;12.10;68.30;;;;;;4982998;28;20219;-88
2023/05/17 06:58:46;;;;;;;6.73;5.03;;;12.20;67.20;;;;;;4982694;28;20235;-88
2023/05/17 07:01:17;;;;;;;7.27;5.00;;;12.20;67.20;;;;;;4986219;28;20186;-88
2023/05/17 07:03:46;;;;;;;8.03;4.60;;;12.00;67.20;;;;;;4966863;28;20214;-89
2023/05/17 07:06:27;;;;;;;6.53;5.17;;;11.90;67.60;;;;;;4968186;28;20237;-88
2023/05/17 07:09:10;;;;;;;6.33;4.47;;;12.10;68.20;;;;;;4960725;28;20271;-87
2023/05/17 07:11:52;;;;;;;6.93;5.00;;;12.20;66.40;;;;;;4967147;28;20791;-87
2023/05/17 07:14:24;;;;;;;8.47;4.17;;;12.20;65.30;;;;;;4980050;28;20183;-89
2023/05/17 07:16:50;;;;;;;7.20;4.37;;;12.40;65.70;;;;;;4977984;28;20192;-86
2023/05/17 07:19:30;;;;;;;;;;;;;;;;;;;;;
2023/05/17 07:25:22;;;;;;;5.27;4.30;;;12.70;61.90;;;;;;4972598;28;20232;-88
2023/05/17 07:27:57;;;;;;;7.40;5.20;;;13.00;60.90;;;;;;4966333;28;20212;-86
2023/05/17 07:30:23;;;;;;;6.93;4.50;;;13.10;60.70;;;;;;4981460;28;20566;-86
2023/05/17 07:32:51;;;;;;;6.77;4.47;;;13.10;60.10;;;;;;4979326;28;20210;-86
2023/05/17 07:35:17;;;;;;;7.83;4.80;;;13.20;60.60;;;;;;4974971;28;20670;-87
2023/05/17 07:37:43;;;;;;;5.83;4.70;;;13.20;59.20;;;;;;4982341;23;20190;-91
2023/05/17 07:40:09;;;;;;;5.87;4.60;;;13.10;59.50;;;;;;5042011;28;20204;-90
2023/05/17 07:42:34;;;;;;;6.17;4.87;;;13.20;60.30;;;;;;5039405;28;20724;-89
2023/05/17 07:45:00;;;;;;;7.93;5.10;;;13.10;58.50;;;;;;5028052;28;20209;-88
2023/05/17 07:47:25;;;;;;;6.30;4.60;;;13.10;58.70;;;;;;5022144;28;20188;-90
2023/05/17 07:49:51;;;;;;;5.47;4.57;;;13.00;58.60;;;;;;5019980;28;20201;-89
2023/05/17 07:52:17;;;;;;;5.63;4.40;;;13.20;59.40;;;;;;5021743;28;20207;-90
2023/05/17 07:54:42;;;;;;;5.30;4.40;;;13.20;58.20;;;;;;5016628;28;20208;-88
2023/05/17 07:57:24;;;;;;;6.33;4.23;;;13.10;59.10;;;;;;5015312;28;20282;-92
2023/05/17 07:59:50;;;;;;;5.83;4.80;;;13.20;58.60;;;;;;5016934;28;20677;-88
2023/05/17 08:02:15;;;;;;;6.27;4.77;;;13.30;58.80;;;;;;5020784;28;20181;-89
2023/05/17 08:04:41;;;;;;;7.70;4.60;;;13.40;56.80;;;;;;5018498;28;20215;-90
2023/05/17 08:07:07;;;;;;;7.33;5.13;;;13.10;57.60;;;;;;5019477;28;20192;-89
2023/05/17 08:09:32;;;;;;;7.43;5.57;;;13.10;58.40;;;;;;5023156;28;20173;-90
2023/05/17 08:11:58;;;;;;;5.87;4.70;;;13.00;59.00;;;;;;5023277;28;20212;-89
2023/05/17 08:14:25;;;;;;;7.13;4.70;;;12.80;59.00;;;;;;5023155;28;20207;-90
2023/05/17 08:16:51;;;;;;;8.77;4.97;;;12.90;58.50;;;;;;5021872;28;20600;-88
2023/05/17 08:19:17;;;;;;;6.57;5.20;;;13.00;58.40;;;;;;5023429;28;20210;-90
2023/05/17 08:21:46;;;;;;;7.73;5.23;;;12.90;58.90;;;;;;5025139;28;20278;-91
2023/05/17 08:24:11;;;;;;;13.60;5.00;;;12.80;59.50;;;;;;5020910;28;20222;-94
2023/05/17 08:26:37;;;;;;;5.60;4.77;;;12.90;59.50;;;;;;5025969;28;20279;-94
2023/05/17 08:29:04;;;;;;;6.37;5.10;;;12.90;59.60;;;;;;5018137;28;20215;-91
2023/05/17 08:31:30;;;;;;;6.50;5.33;;;12.90;59.50;;;;;;5020133;28;20239;-93
2023/05/17 08:33:56;;;;;;;6.37;4.60;;;12.70;58.80;;;;;;5018425;28;20376;-90
2023/05/17 08:36:22;;;;;;;5.60;4.53;;;12.60;59.40;;;;;;5015124;28;20191;-91
2023/05/17 08:38:47;;;;;;;5.43;4.10;;;13.00;59.00;;;;;;5015326;28;20211;-87
2023/05/17 08:41:13;;;;;;;6.23;4.83;;;13.30;60.10;;;;;;5023295;28;20183;-88
2023/05/17 08:43:40;;;;;;;5.87;4.87;;;13.80;55.30;;;;;;5019748;28;20206;-85
2023/05/17 08:46:06;;;;;;;8.23;5.53;;;14.30;55.30;;;;;;5020008;28;20213;-93
2023/05/17 08:48:35;;;;;;;7.87;5.00;;;14.70;53.10;;;;;;5023195;28;20275;-92
2023/05/17 08:51:01;;;;;;;7.67;5.67;;;14.90;51.70;;;;;;5022377;28;20181;-94
2023/05/17 08:53:27;;;;;;;10.07;5.77;;;15.00;51.20;;;;;;5019282;28;20213;-91
2023/05/17 08:55:59;;;;;;;7.67;5.63;;;14.90;50.40;;;;;;5014084;28;20218;-88
2023/05/17 08:58:28;;;;;;;7.53;5.40;;;14.80;49.90;;;;;;5010941;28;20191;-90
2023/05/17 09:00:56;;;;;;;8.27;5.50;;;15.10;51.70;;;;;;5011192;28;20646;-91
2023/05/17 09:03:22;;;;;;;6.17;5.57;;;15.60;48.80;;;;;;5021047;28;20240;-95
2023/05/17 09:05:55;;;;;;;9.50;5.57;;;15.70;48.60;;;;;;5018300;28;20201;-89
2023/05/17 09:08:22;;;;;;;6.10;5.30;;;15.90;48.00;;;;;;5010677;28;20189;-93
2023/05/17 09:10:48;;;;;;;9.83;6.00;;;16.10;46.90;;;;;;5011733;28;20260;-94
2023/05/17 09:13:14;;;;;;;7.97;6.43;;;16.20;47.90;;;;;;5012871;28;20184;-92
2023/05/17 09:15:46;;;;;;;9.43;5.53;;;16.40;47.70;;;;;;5010767;28;20206;-94
2023/05/17 09:18:12;;;;;;;7.03;5.73;;;16.10;46.80;;;;;;5011005;28;20208;-92
2023/05/17 09:20:41;;;;;;;7.47;5.63;;;15.70;48.10;;;;;;5015108;28;20223;-90
2023/05/17 09:23:09;;;;;;;7.53;5.60;;;15.40;46.90;;;;;;5012799;28;20193;-89
2023/05/17 09:25:35;;;;;;;6.33;5.27;;;15.20;48.80;;;;;;5012097;28;20184;-92
2023/05/17 09:28:08;;;;;;;6.70;5.47;;;14.80;49.50;;;;;;5011560;28;20186;-90
2023/05/17 09:30:38;;;;;;;8.30;5.63;;;14.80;49.70;;;;;;5012168;28;20389;-90
2023/05/17 09:33:10;;;;;;;7.20;5.83;;;15.00;50.10;;;;;;5011604;28;21036;-90
2023/05/17 09:35:37;;;;;;;5.37;4.83;;;15.20;49.30;;;;;;5008956;28;20694;-92
2023/05/17 09:38:16;;;;;;;9.00;5.60;;;15.00;49.40;;;;;;5011385;28;20217;-92
2023/05/17 09:40:43;;;;;;;5.53;4.97;;;14.90;49.40;;;;;;5011642;28;20221;-90
2023/05/17 09:43:10;;;;;;;5.57;4.77;;;14.70;50.50;;;;;;5011652;28;20708;-91
2023/05/17 09:45:36;;;;;;;6.80;5.43;;;14.60;51.60;;;;;;5012872;28;20230;-92
2023/05/17 09:48:18;;;;;;;6.00;5.30;;;14.70;51.30;;;;;;5010299;28;20184;-89
2023/05/17 09:50:45;;;;;;;6.33;5.20;;;15.10;51.10;;;;;;5010494;28;21059;-89
2023/05/17 09:53:28;;;;;;;9.10;5.50;;;15.60;48.70;;;;;;5012033;28;20193;-91
2023/05/17 09:55:56;;;;;;;5.10;4.60;;;15.70;47.50;;;;;;5009977;28;20185;-92
2023/05/17 09:58:22;;;;;;;7.50;5.47;;;15.60;48.20;;;;;;5008314;28;20177;-91
2023/05/17 10:00:55;;;;;;;7.43;5.10;;;15.50;49.50;;;;;;5009188;28;20892;-91
2023/05/17 10:03:21;;;;;;;6.90;5.00;;;15.10;49.80;;;;;;5007100;28;20208;-93
2023/05/17 10:05:51;;;;;;;7.40;5.10;;;14.90;51.60;;;;;;5012391;28;20228;-90
2023/05/17 10:08:20;;;;;;;5.93;5.07;;;14.90;52.00;;;;;;5007374;28;20192;-92
2023/05/17 10:10:48;;;;;;;7.80;5.10;;;14.90;51.70;;;;;;5007952;28;20188;-90
2023/05/17 10:13:16;;;;;;;5.27;4.60;;;14.80;50.90;;;;;;5013059;28;20175;-92
2023/05/17 10:15:42;;;;;;;6.60;5.03;;;15.00;50.80;;;;;;5012389;28;20196;-91
2023/05/17 10:18:08;;;;;;;6.30;4.83;;;15.20;50.00;;;;;;5008101;28;20296;-91
2023/05/17 10:20:35;;;;;;;6.80;4.80;;;15.40;50.00;;;;;;5013186;28;20252;-94
2023/05/17 10:23:05;;;;;;;5.50;4.40;;;15.40;51.40;;;;;;5013584;28;20200;-89
2023/05/17 10:25:32;;;;;;;6.57;5.00;;;15.40;50.10;;;;;;5011861;28;20215;-91
2023/05/17 10:27:58;;;;;;;4.90;4.27;;;15.40;49.50;;;;;;5009531;28;20532;-91
2023/05/17 10:30:27;;;;;;;6.13;4.47;;;15.10;49.20;;;;;;5015552;28;20231;-90
2023/05/17 10:32:53;;;;;;;6.00;4.70;;;15.30;50.40;;;;;;5012857;28;20204;-90
2023/05/17 10:35:19;;;;;;;6.90;5.03;;;15.20;51.10;;;;;;5015983;28;20211;-90
2023/05/17 10:37:45;;;;;;;5.63;4.50;;;15.30;51.30;;;;;;5011494;28;20181;-91
2023/05/17 10:40:16;;;;;;;4.67;4.17;;;15.40;51.30;;;;;;5013342;28;20189;-90
2023/05/17 10:42:46;;;;;;;5.87;4.93;;;15.50;50.60;;;;;;5015184;28;20220;-92
2023/05/17 10:45:12;;;;;;;4.73;4.10;;;15.40;50.80;;;;;;5015334;28;20341;-92
2023/05/17 10:47:42;;;;;;;5.63;4.63;;;15.30;50.00;;;;;;5006748;28;20274;-90
2023/05/17 10:50:12;;;;;;;5.93;5.00;;;15.30;50.40;;;;;;5012268;28;20208;-91
2023/05/17 10:52:44;;;;;;;5.70;4.70;;;15.30;50.50;;;;;;5013193;28;20291;-91
2023/05/17 10:55:10;;;;;;;4.90;4.33;;;15.20;51.90;;;;;;5013658;28;20220;-91
2023/05/17 10:57:37;;;;;;;7.57;4.93;;;15.30;52.00;;;;;;5008134;28;20186;-91
2023/05/17 11:00:06;;;;;;;6.53;4.47;;;15.40;50.20;;;;;;5014472;28;20558;-92
2023/05/17 11:02:33;;;;;;;5.37;4.87;;;15.20;49.40;;;;;;5014513;28;20195;-92
2023/05/17 11:05:00;;;;;;;4.87;4.40;;;15.20;50.20;;;;;;5011868;28;20326;-91
2023/05/17 11:07:36;;;;;;;7.17;4.97;;;15.20;51.00;;;;;;5010435;28;20590;-92
2023/05/17 11:10:11;;;;;;;6.07;4.43;;;15.30;50.20;;;;;;5013740;28;20178;-93
2023/05/17 11:12:40;;;;;;;5.43;4.50;;;15.40;50.80;;;;;;5015402;28;20201;-91
2023/05/17 11:15:15;;;;;;;5.93;4.43;;;15.30;49.20;;;;;;5012522;28;20649;-90
2023/05/17 11:17:45;;;;;;;5.43;4.20;;;15.20;49.50;;;;;;5009442;28;20188;-92
2023/05/17 11:20:13;;;;;;;6.83;4.57;;;15.30;50.20;;;;;;5013697;28;20523;-94
2023/05/17 11:23:06;;;;;;;4.90;4.40;;;14.90;50.30;;;;;;5011854;28;20202;-91
2023/05/17 11:25:36;;;;;;;6.23;5.17;;;14.90;49.70;;;;;;5011712;28;20188;-90
2023/05/17 11:28:16;;;;;;;5.07;4.50;;;15.20;48.70;;;;;;5007535;28;20575;-91
2023/05/17 11:30:49;;;;;;;6.00;4.50;;;15.30;48.60;;;;;;5009038;28;20268;-90
2023/05/17 11:33:20;;;;;;;6.23;4.70;;;15.60;48.20;;;;;;5012624;28;20177;-91
2023/05/17 11:35:46;;;;;;;5.43;4.40;;;15.80;46.60;;;;;;5014195;28;20192;-91
2023/05/17 11:38:23;;;;;;;4.40;4.00;;;15.90;44.70;;;;;;5008039;28;20195;-92
2023/05/17 11:40:54;;;;;;;5.07;4.50;;;16.00;43.60;;;;;;5015215;28;20209;-92
2023/05/17 11:43:21;;;;;;;5.13;4.37;;;16.40;43.70;;;;;;5016584;28;20178;-91
2023/05/17 11:45:51;;;;;;;9.47;4.77;;;16.60;41.60;;;;;;5013341;28;20246;-91
2023/05/17 11:48:20;;;;;;;4.83;4.37;;;16.80;42.00;;;;;;5010335;28;20239;-91
2023/05/17 11:50:47;;;;;;;5.47;4.90;;;16.80;41.10;;;;;;5012746;28;20183;-91
2023/05/17 11:53:14;;;;;;;5.77;4.83;;;16.50;40.20;;;;;;5013667;28;20224;-91
2023/05/17 11:55:42;;;;;;;5.80;4.70;;;16.50;41.90;;;;;;5012293;28;20209;-94
2023/05/17 11:58:10;;;;;;;4.97;4.57;;;16.50;42.00;;;;;;5009183;28;20611;-92
2023/05/17 12:00:39;;;;;;;5.23;4.70;;;16.50;42.00;;;;;;5014152;28;20596;-91
2023/05/17 12:03:14;;;;;;;6.07;4.30;;;16.50;41.20;;;;;;5012312;28;20243;-92
2023/05/17 12:05:40;;;;;;;5.03;4.60;;;16.40;40.70;;;;;;5010441;28;20343;-90
2023/05/17 12:08:05;;;;;;;5.57;4.30;;;16.30;41.30;;;;;;5009743;28;20671;-92
2023/05/17 12:10:32;;;;;;;6.00;4.43;;;16.30;41.80;;;;;;5012509;28;20198;-90
2023/05/17 12:12:57;;;;;;;4.83;4.33;;;16.40;40.40;;;;;;5010601;28;20210;-92
2023/05/17 12:15:27;;;;;;;6.17;4.50;;;16.30;40.50;;;;;;5016660;28;20262;-93
2023/05/17 12:17:54;;;;;;;5.37;4.63;;;16.40;41.30;;;;;;5011085;28;20189;-92
2023/05/17 12:20:20;;;;;;;7.70;5.23;;;16.60;41.60;;;;;;5005839;28;20189;-92
2023/05/17 12:22:56;;;;;;;4.90;4.50;;;16.60;41.10;;;;;;5012580;28;20248;-90
2023/05/17 12:25:24;;;;;;;6.20;4.23;;;16.80;39.10;;;;;;5015372;28;20207;-92
2023/05/17 12:27:50;;;;;;;5.03;4.60;;;16.70;40.30;;;;;;5012311;28;20739;-91
2023/05/17 12:30:16;;;;;;;5.17;4.63;;;16.50;39.90;;;;;;5011438;28;20292;-91
2023/05/17 12:32:43;;;;;;;5.00;4.60;;;16.30;40.80;;;;;;5017634;28;20201;-90
2023/05/17 12:35:09;;;;;;;5.87;4.77;;;16.40;41.80;;;;;;5017089;28;20216;-93
2023/05/17 12:37:35;;;;;;;6.17;4.53;;;16.50;40.20;;;;;;5011256;28;20902;-91
2023/05/17 12:40:03;;;;;;;5.90;4.40;;;16.50;40.50;;;;;;5017478;28;20197;-91
2023/05/17 12:42:33;;;;;;;6.50;4.90;;;16.60;39.20;;;;;;5014765;28;20663;-92
2023/05/17 12:44:59;;;;;;;5.07;4.60;;;16.80;38.70;;;;;;5009974;28;20738;-91
2023/05/17 12:47:29;;;;;;;9.67;5.20;;;17.00;38.10;;;;;;5007077;28;20260;-89
2023/05/17 12:49:55;;;;;;;6.03;5.03;;;17.30;38.60;;;;;;5008489;28;20746;-91
2023/05/17 12:52:21;;;;;;;6.03;5.33;;;17.10;38.90;;;;;;5008521;28;20207;-92
2023/05/17 12:54:46;;;;;;;5.33;4.83;;;17.20;38.20;;;;;;5009015;28;20197;-90
2023/05/17 12:57:15;;;;;;;6.23;4.93;;;17.20;37.90;;;;;;5007777;28;20180;-89